Time;durP1;ratioP1;P1;durP2;ratioP2;P2;SDS_P1;SDS_P2;PMS_P1;PMS_P2;Temp;Humidity;BMP_temperature;BMP_pressure;BME280_temperature;BME280_humidity;BME280_pressure;Samples;Min_cycle;Max_cycle;Signal;HPM_P1;HPM_P2
2021/05/26 00:01:21;;;;;;;19.03;10.80;;;9.20;99.90;;;;;;5110946;28;20051;-60
2021/05/26 00:03:47;;;;;;;13.37;9.77;;;9.10;99.90;;;;;;5110433;28;20463;-59
2021/05/26 00:06:13;;;;;;;17.37;10.60;;;9.10;99.90;;;;;;5108790;28;20047;-60
2021/05/26 00:08:38;;;;;;;17.23;10.93;;;9.10;99.90;;;;;;5110551;28;20112;-60
2021/05/26 00:11:08;;;;;;;16.33;10.93;;;9.10;99.90;;;;;;5110538;28;20428;-60
2021/05/26 00:13:35;;;;;;;11.80;10.57;;;9.10;99.90;;;;;;5109978;28;20113;-60
2021/05/26 00:16:01;;;;;;;15.53;10.27;;;9.10;99.90;;;;;;5110323;28;20362;-60
2021/05/26 00:18:27;;;;;;;18.53;11.33;;;9.10;99.90;;;;;;5109950;28;20400;-58
2021/05/26 00:20:53;;;;;;;14.73;10.10;;;9.10;99.90;;;;;;5110253;28;20437;-60
2021/05/26 00:23:21;;;;;;;19.23;11.10;;;9.10;99.90;;;;;;5109736;28;20121;-60
2021/05/26 00:25:47;;;;;;;14.73;10.30;;;9.10;99.90;;;;;;5110130;28;20752;-59
2021/05/26 00:28:13;;;;;;;13.20;10.10;;;9.10;99.90;;;;;;5110027;28;20290;-60
2021/05/26 00:30:48;;;;;;;12.23;10.07;;;9.10;99.90;;;;;;5109593;28;20324;-60
2021/05/26 00:33:15;;;;;;;17.00;10.27;;;9.10;99.90;;;;;;5109714;28;20333;-60
2021/05/26 00:35:40;;;;;;;14.83;10.40;;;9.10;99.90;;;;;;5109708;28;20883;-60
2021/05/26 00:38:06;;;;;;;13.00;9.20;;;9.20;99.90;;;;;;5109559;28;20372;-59
2021/05/26 00:40:33;;;;;;;14.40;8.80;;;9.20;99.90;;;;;;5109462;28;20039;-60
2021/05/26 00:42:59;;;;;;;13.77;9.07;;;9.30;99.90;;;;;;5109677;28;20052;-59
2021/05/26 00:45:25;;;;;;;10.70;8.63;;;9.30;99.90;;;;;;5109896;28;20300;-60
2021/05/26 00:47:51;;;;;;;11.90;9.23;;;9.30;99.90;;;;;;5109639;28;20047;-61
2021/05/26 00:50:43;;;;;;;13.73;8.83;;;9.30;99.90;;;;;;5109779;28;20294;-60
2021/05/26 00:53:12;;;;;;;16.00;8.40;;;9.30;99.90;;;;;;5106359;28;20625;-60
2021/05/26 00:55:39;;;;;;;12.27;8.40;;;9.20;99.90;;;;;;5109689;28;20342;-60
2021/05/26 00:58:05;;;;;;;14.90;9.30;;;9.20;99.90;;;;;;5109671;28;20753;-60
2021/05/26 01:00:35;;;;;;;16.30;9.23;;;9.20;99.90;;;;;;5109187;28;20370;-60
2021/05/26 01:03:02;;;;;;;14.30;9.00;;;9.10;99.90;;;;;;5108998;28;20656;-60
2021/05/26 01:05:28;;;;;;;10.77;8.50;;;9.10;99.90;;;;;;5109388;28;20743;-59
2021/05/26 01:07:54;;;;;;;17.20;9.03;;;9.10;99.90;;;;;;5109550;28;20809;-60
2021/05/26 01:10:22;;;;;;;13.17;8.67;;;9.10;99.90;;;;;;5109400;28;20393;-59
2021/05/26 01:12:48;;;;;;;13.97;9.57;;;9.20;99.90;;;;;;5109435;28;20296;-59
2021/05/26 01:15:16;;;;;;;12.77;9.23;;;9.20;99.90;;;;;;5109574;28;20293;-60
2021/05/26 01:17:42;;;;;;;13.03;8.83;;;9.30;99.90;;;;;;5109638;28;20628;-60
2021/05/26 01:20:11;;;;;;;12.43;9.03;;;9.30;99.90;;;;;;5109296;28;20370;-59
2021/05/26 01:22:37;;;;;;;13.83;8.43;;;9.20;99.90;;;;;;5109484;28;20705;-60
2021/05/26 01:25:06;;;;;;;16.23;8.83;;;9.20;99.90;;;;;;5109282;28;20304;-59
2021/05/26 01:27:31;;;;;;;18.23;8.90;;;9.20;99.90;;;;;;5109780;28;20734;-59
2021/05/26 01:29:59;;;;;;;14.40;9.13;;;9.20;99.90;;;;;;5109022;28;20329;-59
2021/05/26 01:32:25;;;;;;;12.47;9.73;;;9.20;99.90;;;;;;5109570;28;20059;-60
2021/05/26 01:34:51;;;;;;;16.93;10.57;;;9.20;99.90;;;;;;5109364;28;20346;-59
2021/05/26 01:37:16;;;;;;;15.80;10.30;;;9.20;99.90;;;;;;5108978;28;20043;-59
2021/05/26 01:39:50;;;;;;;18.97;12.07;;;9.20;99.90;;;;;;5109056;28;20056;-60
2021/05/26 01:42:31;;;;;;;21.73;12.50;;;9.20;99.90;;;;;;5111524;28;20471;-60
2021/05/26 01:44:57;;;;;;;19.63;13.20;;;9.20;99.90;;;;;;5112806;28;20304;-60
2021/05/26 01:47:23;;;;;;;19.17;13.03;;;9.20;99.90;;;;;;5112865;28;20297;-60
2021/05/26 01:49:49;;;;;;;19.90;14.90;;;9.20;99.90;;;;;;5112751;28;20103;-60
2021/05/26 01:52:15;;;;;;;19.20;14.67;;;9.20;99.90;;;;;;5112665;28;20062;-59
2021/05/26 01:54:41;;;;;;;21.03;15.07;;;9.10;99.90;;;;;;5112359;28;20119;-59
2021/05/26 01:57:06;;;;;;;24.33;17.00;;;9.20;99.90;;;;;;5112709;28;20301;-60
2021/05/26 01:59:32;;;;;;;25.40;17.20;;;9.20;99.90;;;;;;5113134;28;20043;-60
2021/05/26 02:01:58;;;;;;;27.33;18.37;;;9.40;99.90;;;;;;5112224;28;20070;-59
2021/05/26 02:04:24;;;;;;;31.17;19.53;;;9.20;99.90;;;;;;5112663;28;20339;-60
2021/05/26 02:07:03;;;;;;;29.23;19.80;;;9.10;99.90;;;;;;5112161;28;20052;-59
2021/05/26 02:09:29;;;;;;;29.23;20.53;;;9.20;99.90;;;;;;5110495;28;20297;-59
2021/05/26 02:14:39;;;;;;;32.85;21.17;;;9.20;99.90;;;;;;5112483;28;20134;-60
2021/05/26 02:17:05;;;;;;;34.43;23.13;;;9.10;99.90;;;;;;5112064;28;20151;-59
2021/05/26 02:19:31;;;;;;;37.53;23.53;;;9.10;99.90;;;;;;5112093;28;20116;-60
2021/05/26 02:21:57;;;;;;;35.87;22.63;;;9.10;99.90;;;;;;5112217;28;20047;-59
2021/05/26 02:24:23;;;;;;;36.27;22.47;;;9.10;99.90;;;;;;5112237;28;20650;-59
2021/05/26 02:26:48;;;;;;;33.50;21.73;;;9.10;99.90;;;;;;5111838;28;20100;-59
2021/05/26 02:29:14;;;;;;;38.53;23.47;;;9.10;99.90;;;;;;5112285;28;20050;-59
2021/05/26 02:31:40;;;;;;;38.83;23.77;;;9.10;99.90;;;;;;5112013;28;20414;-60
2021/05/26 02:34:05;;;;;;;34.43;22.23;;;9.10;99.90;;;;;;5111859;28;20455;-60
2021/05/26 02:36:31;;;;;;;36.53;24.70;;;9.10;99.90;;;;;;5111702;28;20144;-60
2021/05/26 02:38:57;;;;;;;44.30;23.97;;;9.10;99.90;;;;;;5111821;28;20078;-60
2021/05/26 02:41:22;;;;;;;43.50;25.10;;;9.10;99.90;;;;;;5111519;28;20383;-59
2021/05/26 02:43:48;;;;;;;34.97;23.93;;;9.10;99.90;;;;;;5111555;28;20040;-60
2021/05/26 02:46:14;;;;;;;40.73;24.03;;;9.00;99.90;;;;;;5111782;28;20048;-60
2021/05/26 02:48:39;;;;;;;41.63;22.90;;;8.90;99.90;;;;;;5111919;28;20427;-60
2021/05/26 02:51:05;;;;;;;42.40;24.20;;;8.80;99.90;;;;;;5111828;28;20088;-60
2021/05/26 02:53:31;;;;;;;43.60;23.17;;;8.80;99.90;;;;;;5110284;28;20043;-59
2021/05/26 02:55:56;;;;;;;45.80;24.43;;;8.60;99.90;;;;;;5112098;28;20124;-60
2021/05/26 02:58:22;;;;;;;40.37;22.97;;;8.60;99.90;;;;;;5112066;28;20400;-60
2021/05/26 03:00:48;;;;;;;45.50;23.73;;;8.50;99.90;;;;;;5111517;28;20147;-59
2021/05/26 03:03:13;;;;;;;42.40;25.00;;;8.40;99.90;;;;;;5111157;28;20051;-60
2021/05/26 03:05:39;;;;;;;44.67;23.93;;;8.40;99.90;;;;;;5111490;28;20508;-59
2021/05/26 03:08:05;;;;;;;47.27;24.80;;;8.30;99.90;;;;;;5111218;28;20122;-59
2021/05/26 03:10:31;;;;;;;46.33;24.07;;;8.30;99.90;;;;;;5111290;28;20119;-61
2021/05/26 03:12:56;;;;;;;39.97;23.50;;;8.20;99.90;;;;;;5110662;28;20051;-59
2021/05/26 03:15:22;;;;;;;50.13;23.90;;;8.20;99.90;;;;;;5110598;28;20048;-59
2021/05/26 03:17:48;;;;;;;46.33;23.53;;;8.20;99.90;;;;;;5110426;28;20054;-59
2021/05/26 03:20:15;;;;;;;44.63;23.77;;;8.10;99.90;;;;;;5110569;28;20039;-59
2021/05/26 03:22:42;;;;;;;51.13;23.20;;;8.10;99.90;;;;;;5111172;28;20039;-60
2021/05/26 03:25:11;;;;;;;42.83;23.67;;;8.10;99.90;;;;;;5111004;28;20301;-59
2021/05/26 03:27:38;;;;;;;44.17;22.20;;;8.10;99.90;;;;;;5111372;28;20297;-60
2021/05/26 03:30:06;;;;;;;40.97;21.43;;;8.20;99.90;;;;;;5111001;28;20297;-59
2021/05/26 03:32:33;;;;;;;36.67;20.30;;;8.30;99.90;;;;;;5111156;28;20327;-59
2021/05/26 03:34:59;;;;;;;41.70;21.13;;;8.30;99.90;;;;;;5111087;28;20304;-59
2021/05/26 03:37:24;;;;;;;30.63;19.17;;;8.30;99.90;;;;;;5111498;28;20305;-59
2021/05/26 03:39:50;;;;;;;29.83;17.80;;;8.30;99.90;;;;;;5110562;28;20614;-59
2021/05/26 03:42:16;;;;;;;27.60;17.37;;;8.30;99.90;;;;;;5110906;28;20130;-60
2021/05/26 03:44:41;;;;;;;30.87;16.13;;;8.30;99.90;;;;;;5110643;28;20058;-59
2021/05/26 03:47:07;;;;;;;31.17;16.57;;;8.40;99.90;;;;;;5110602;28;20092;-60
2021/05/26 03:49:33;;;;;;;21.10;13.90;;;8.40;99.90;;;;;;5110608;28;20044;-60
2021/05/26 03:51:59;;;;;;;26.10;14.43;;;8.30;99.90;;;;;;5110935;28;20048;-60
2021/05/26 03:54:25;;;;;;;23.10;14.50;;;8.30;99.90;;;;;;5110871;28;20502;-60
2021/05/26 03:56:52;;;;;;;23.80;14.00;;;8.30;99.90;;;;;;5110406;28;20309;-60
2021/05/26 03:59:17;;;;;;;28.77;13.60;;;8.20;99.90;;;;;;5110807;28;20043;-59
2021/05/26 04:01:43;;;;;;;19.47;12.70;;;8.20;99.90;;;;;;5110736;28;20312;-60
2021/05/26 04:04:09;;;;;;;24.10;12.70;;;8.20;99.90;;;;;;5109998;28;20055;-59
2021/05/26 04:06:35;;;;;;;21.47;12.17;;;8.10;99.90;;;;;;5110395;28;20646;-60
2021/05/26 04:09:01;;;;;;;19.70;12.23;;;8.10;99.90;;;;;;5110393;28;20064;-60
2021/05/26 04:11:27;;;;;;;28.37;12.73;;;8.00;99.90;;;;;;5110964;28;20289;-61
2021/05/26 04:13:53;;;;;;;21.27;11.77;;;8.00;99.90;;;;;;5110841;28;20641;-60
2021/05/26 04:16:19;;;;;;;18.87;11.50;;;8.00;99.90;;;;;;5110409;28;20047;-61
2021/05/26 04:18:44;;;;;;;20.20;11.73;;;8.00;99.90;;;;;;5110751;28;20331;-61
2021/05/26 04:21:10;;;;;;;19.43;12.03;;;8.10;99.90;;;;;;5110718;28;20134;-60
2021/05/26 04:23:37;;;;;;;17.47;11.53;;;8.20;99.90;;;;;;5109842;28;20043;-60
2021/05/26 04:26:03;;;;;;;16.97;10.50;;;8.40;99.90;;;;;;5108763;28;20297;-61
2021/05/26 04:28:29;;;;;;;12.10;9.20;;;8.60;99.90;;;;;;5110579;28;20298;-61
2021/05/26 04:30:55;;;;;;;15.53;8.67;;;8.70;99.90;;;;;;5110449;28;20293;-60
2021/05/26 04:33:20;;;;;;;15.53;8.70;;;8.90;99.90;;;;;;5109875;28;20412;-60
2021/05/26 04:35:47;;;;;;;14.97;7.47;;;9.00;99.90;;;;;;5110448;28;20108;-61
2021/05/26 04:38:13;;;;;;;9.43;6.53;;;9.20;99.90;;;;;;5109801;28;20037;-60
2021/05/26 04:40:40;;;;;;;9.53;6.53;;;9.10;99.90;;;;;;5110061;28;20365;-61
2021/05/26 04:43:05;;;;;;;10.67;6.43;;;9.20;99.90;;;;;;5110679;28;20586;-61
2021/05/26 04:45:31;;;;;;;8.93;6.00;;;9.40;99.90;;;;;;5109992;28;20404;-60
2021/05/26 04:47:59;;;;;;;10.07;5.20;;;9.40;99.90;;;;;;5111259;28;20699;-61
2021/05/26 04:50:25;;;;;;;11.17;5.43;;;9.60;99.90;;;;;;5111093;28;20054;-60
2021/05/26 04:52:51;;;;;;;10.40;5.50;;;9.60;99.90;;;;;;5113066;28;20298;-60
2021/05/26 04:55:17;;;;;;;7.33;4.87;;;9.60;99.90;;;;;;5113025;28;20149;-60
2021/05/26 04:57:42;;;;;;;7.70;4.67;;;9.60;99.90;;;;;;5115405;28;20297;-60
2021/05/26 05:00:09;;;;;;;7.03;4.57;;;9.50;99.90;;;;;;5113588;28;20044;-60
2021/05/26 05:02:35;;;;;;;11.07;5.13;;;9.50;99.90;;;;;;5112705;28;20440;-59
2021/05/26 05:05:01;;;;;;;6.83;5.07;;;9.40;99.90;;;;;;5111110;28;20309;-61
2021/05/26 05:07:26;;;;;;;7.37;4.57;;;9.30;99.90;;;;;;5111155;28;20048;-60
2021/05/26 05:09:52;;;;;;;7.07;4.60;;;9.30;99.90;;;;;;5111558;28;20500;-58
2021/05/26 05:12:18;;;;;;;6.03;4.50;;;9.30;99.90;;;;;;5114735;28;20047;-61
2021/05/26 05:14:44;;;;;;;5.70;4.43;;;9.20;99.90;;;;;;5114633;28;20451;-63
2021/05/26 05:17:10;;;;;;;7.80;4.93;;;9.30;99.90;;;;;;5111807;28;20308;-64
2021/05/26 05:19:36;;;;;;;5.70;4.03;;;9.40;99.90;;;;;;5119901;28;20056;-60
2021/05/26 05:22:01;;;;;;;7.13;4.33;;;9.60;99.90;;;;;;5119776;27;20066;-60
2021/05/26 05:24:28;;;;;;;5.13;3.80;;;9.70;99.90;;;;;;5121012;28;20048;-58
2021/05/26 05:26:53;;;;;;;5.20;3.93;;;9.80;99.90;;;;;;5121902;28;20296;-60
2021/05/26 05:29:19;;;;;;;6.67;4.23;;;9.90;99.90;;;;;;5117993;28;20456;-61
2021/05/26 05:31:45;;;;;;;5.07;3.13;;;10.10;99.90;;;;;;5113060;28;20047;-61
2021/05/26 05:34:10;;;;;;;6.53;3.43;;;10.30;99.90;;;;;;5116985;28;20063;-57
2021/05/26 05:36:36;;;;;;;9.87;4.00;;;10.40;99.90;;;;;;5130925;28;20050;-58
2021/05/26 05:39:03;;;;;;;6.53;3.57;;;10.30;99.90;;;;;;5149171;27;20067;-58
2021/05/26 05:41:30;;;;;;;5.47;3.63;;;10.20;99.90;;;;;;5146109;27;20102;-59
2021/05/26 05:43:56;;;;;;;6.50;3.50;;;10.20;99.90;;;;;;5149570;27;20293;-58
2021/05/26 05:46:22;;;;;;;8.13;4.07;;;10.20;99.90;;;;;;5152169;27;20357;-58
2021/05/26 05:48:48;;;;;;;9.63;4.20;;;10.20;99.90;;;;;;5152309;27;20101;-59
2021/05/26 05:51:13;;;;;;;7.77;4.50;;;10.20;99.90;;;;;;5150703;27;20341;-60
2021/05/26 05:53:39;;;;;;;8.67;4.30;;;10.20;99.90;;;;;;5144329;27;20439;-59
2021/05/26 05:56:05;;;;;;;8.20;4.37;;;10.50;99.90;;;;;;5154560;27;20051;-59
2021/05/26 05:58:31;;;;;;;8.93;5.50;;;10.40;99.90;;;;;;5150067;27;20054;-59
2021/05/26 06:00:57;;;;;;;10.23;5.70;;;10.60;99.90;;;;;;5136544;27;20091;-62
2021/05/26 06:03:24;;;;;;;14.00;5.77;;;10.70;99.90;;;;;;5134492;27;20987;-67
2021/05/26 06:05:50;;;;;;;12.10;6.00;;;10.70;99.90;;;;;;5134216;27;20055;-60
2021/05/26 06:08:15;;;;;;;16.03;6.60;;;10.80;99.90;;;;;;5147552;27;20285;-60
2021/05/26 06:10:41;;;;;;;12.43;7.00;;;10.80;99.90;;;;;;5154679;27;20123;-60
2021/05/26 06:13:08;;;;;;;10.20;6.73;;;10.70;99.90;;;;;;5154410;27;20042;-60
2021/05/26 06:15:35;;;;;;;11.47;7.43;;;10.70;99.90;;;;;;5153514;27;20088;-60
2021/05/26 06:18:01;;;;;;;12.73;8.00;;;10.70;99.90;;;;;;5153957;27;20334;-59
2021/05/26 06:20:27;;;;;;;13.57;8.27;;;10.70;99.90;;;;;;5152726;27;20325;-59
2021/05/26 06:22:53;;;;;;;15.33;8.00;;;10.70;99.90;;;;;;5152628;27;20291;-60
2021/05/26 06:25:20;;;;;;;15.73;7.80;;;10.80;99.90;;;;;;5153648;27;20280;-61
2021/05/26 06:27:46;;;;;;;15.87;8.80;;;10.80;99.90;;;;;;5153158;27;20355;-61
2021/05/26 06:30:12;;;;;;;14.77;7.83;;;11.10;99.90;;;;;;5153315;27;20289;-60
2021/05/26 06:32:37;;;;;;;15.30;8.03;;;11.30;99.90;;;;;;5154181;27;20046;-60
2021/05/26 06:35:04;;;;;;;15.33;7.67;;;11.70;99.90;;;;;;5153068;27;20293;-60
2021/05/26 06:37:30;;;;;;;10.13;7.30;;;11.90;99.90;;;;;;5151232;27;20114;-60
2021/05/26 06:39:56;;;;;;;14.80;7.80;;;12.10;99.90;;;;;;5143716;27;20292;-60
2021/05/26 06:42:21;;;;;;;15.27;8.33;;;12.10;99.90;;;;;;5140207;27;20054;-62
2021/05/26 06:44:48;;;;;;;10.23;7.23;;;12.00;99.90;;;;;;5141888;27;20411;-60
2021/05/26 06:47:14;;;;;;;16.13;7.97;;;11.90;99.90;;;;;;5142983;27;20597;-60
2021/05/26 06:49:40;;;;;;;14.77;8.07;;;12.00;99.90;;;;;;5143361;27;20331;-61
2021/05/26 06:52:06;;;;;;;11.73;7.80;;;12.10;99.90;;;;;;5142322;27;20288;-60
2021/05/26 06:54:31;;;;;;;16.33;8.43;;;12.20;99.90;;;;;;5141661;27;20843;-60
2021/05/26 06:56:57;;;;;;;16.47;9.03;;;12.00;99.90;;;;;;5141454;27;20084;-60
2021/05/26 06:59:23;;;;;;;12.57;8.73;;;12.00;99.90;;;;;;5142272;27;20043;-60
2021/05/26 07:01:48;;;;;;;14.50;9.00;;;11.90;99.90;;;;;;5140201;27;20062;-60
2021/05/26 07:04:15;;;;;;;16.50;9.10;;;12.00;99.90;;;;;;5140867;27;20094;-60
2021/05/26 07:06:40;;;;;;;17.77;9.30;;;12.00;99.90;;;;;;5141282;27;20058;-60
2021/05/26 07:09:06;;;;;;;16.33;9.73;;;12.00;99.90;;;;;;5140487;27;20292;-60
2021/05/26 07:11:32;;;;;;;18.90;9.63;;;12.10;99.90;;;;;;5140917;27;20350;-60
2021/05/26 07:13:57;;;;;;;27.13;10.90;;;12.00;99.90;;;;;;5140590;27;20059;-61
2021/05/26 07:16:23;;;;;;;17.60;9.40;;;12.00;99.90;;;;;;5139202;27;20047;-60
2021/05/26 07:18:49;;;;;;;20.23;9.80;;;12.00;99.90;;;;;;5138054;27;20078;-60
2021/05/26 07:21:16;;;;;;;20.03;10.53;;;12.20;99.90;;;;;;5137990;27;20060;-59
2021/05/26 07:23:42;;;;;;;20.27;10.60;;;12.30;99.90;;;;;;5138896;27;20043;-60
2021/05/26 07:26:09;;;;;;;20.90;9.90;;;12.30;99.90;;;;;;5138679;27;20291;-60
2021/05/26 07:28:37;;;;;;;16.03;10.10;;;12.30;99.90;;;;;;5139764;27;20318;-60
2021/05/26 07:31:04;;;;;;;21.63;9.77;;;12.30;99.90;;;;;;5141105;27;20284;-60
2021/05/26 07:33:30;;;;;;;19.63;9.93;;;12.20;99.90;;;;;;5139237;27;20342;-60
2021/05/26 07:35:56;;;;;;;16.90;9.93;;;12.30;99.90;;;;;;5139527;27;20289;-60
2021/05/26 07:38:21;;;;;;;14.70;8.20;;;12.30;99.90;;;;;;5138518;27;20491;-61
2021/05/26 07:40:47;;;;;;;17.43;9.43;;;12.30;99.90;;;;;;5139048;27;20057;-60
2021/05/26 07:43:13;;;;;;;14.03;9.00;;;12.40;99.90;;;;;;5138708;27;20050;-60
2021/05/26 07:45:39;;;;;;;16.53;8.27;;;12.40;99.90;;;;;;5138314;27;20077;-61
2021/05/26 07:48:05;;;;;;;19.10;8.70;;;12.50;99.90;;;;;;5137419;27;20179;-61
2021/05/26 07:50:35;;;;;;;15.80;8.93;;;12.50;99.90;;;;;;5137646;27;20043;-58
2021/05/26 07:53:04;;;;;;;11.20;7.00;;;12.60;99.90;;;;;;5138331;27;21180;-60
2021/05/26 07:55:30;;;;;;;15.60;7.83;;;12.70;99.90;;;;;;5119645;27;20759;-60
2021/05/26 07:57:56;;;;;;;16.37;7.60;;;12.90;99.90;;;;;;5137579;27;20296;-59
2021/05/26 08:00:22;;;;;;;15.80;8.07;;;13.00;99.90;;;;;;5137350;27;20311;-60
2021/05/26 08:02:49;;;;;;;14.90;7.07;;;13.10;99.90;;;;;;5137063;27;20763;-61
2021/05/26 08:05:16;;;;;;;12.00;6.43;;;13.50;99.90;;;;;;5137327;27;20308;-61
2021/05/26 08:07:42;;;;;;;14.27;6.00;;;13.60;97.10;;;;;;5138450;27;20299;-61
2021/05/26 08:10:08;;;;;;;13.03;6.40;;;13.70;99.50;;;;;;5138401;27;20303;-61
2021/05/26 08:12:34;;;;;;;12.90;6.80;;;13.60;97.80;;;;;;5137792;27;20299;-61
2021/05/26 08:15:00;;;;;;;12.20;6.97;;;13.50;98.40;;;;;;5138069;27;20509;-61
2021/05/26 08:17:25;;;;;;;14.10;6.53;;;13.60;98.90;;;;;;5137263;27;20046;-61
2021/05/26 08:19:51;;;;;;;11.43;6.93;;;13.80;98.30;;;;;;5136436;27;20309;-60
2021/05/26 08:22:17;;;;;;;15.10;7.80;;;13.80;98.60;;;;;;5135470;27;20047;-60
2021/05/26 08:24:42;;;;;;;17.47;8.10;;;13.80;98.50;;;;;;5137137;27;20127;-61
2021/05/26 08:27:09;;;;;;;14.93;6.80;;;13.80;99.50;;;;;;5137593;27;20043;-60
2021/05/26 08:29:34;;;;;;;11.90;7.20;;;13.80;98.70;;;;;;5137497;27;20292;-61
2021/05/26 08:32:01;;;;;;;15.23;7.30;;;13.70;98.80;;;;;;5136697;27;20035;-60
2021/05/26 08:34:27;;;;;;;16.23;7.30;;;13.60;98.50;;;;;;5138069;27;20043;-62
2021/05/26 08:36:53;;;;;;;14.77;7.20;;;13.30;99.90;;;;;;5138366;27;20409;-62
2021/05/26 08:39:20;;;;;;;14.03;6.53;;;13.20;99.50;;;;;;5137814;27;20402;-59
2021/05/26 08:41:51;;;;;;;16.77;6.90;;;13.30;98.20;;;;;;5137627;27;20043;-61
2021/05/26 08:44:17;;;;;;;10.93;5.90;;;13.30;97.70;;;;;;5138478;27;20372;-62
2021/05/26 08:46:42;;;;;;;12.47;6.00;;;13.40;94.50;;;;;;5137550;27;20352;-60
2021/05/26 08:49:09;;;;;;;10.77;6.17;;;13.40;96.10;;;;;;5137038;27;20078;-62
2021/05/26 08:51:35;;;;;;;10.47;5.00;;;13.60;96.60;;;;;;5136154;27;20039;-61
2021/05/26 08:54:02;;;;;;;12.80;6.00;;;13.70;96.10;;;;;;5136478;27;20763;-62
2021/05/26 08:56:28;;;;;;;12.63;6.27;;;13.50;96.40;;;;;;5138155;27;20296;-61
2021/05/26 08:58:55;;;;;;;9.83;6.00;;;13.30;99.90;;;;;;5140432;27;20299;-61
2021/05/26 09:01:21;;;;;;;9.67;4.73;;;13.00;99.90;;;;;;5140368;27;20841;-61
2021/05/26 09:03:50;;;;;;;7.20;3.20;;;12.70;99.90;;;;;;5115797;28;20314;-60
2021/05/26 09:06:16;;;;;;;5.90;2.80;;;12.30;99.90;;;;;;5144093;28;20590;-60
2021/05/26 09:08:52;;;;;;;5.57;3.70;;;12.20;99.90;;;;;;5143464;28;20327;-60
2021/05/26 09:11:36;;;;;;;8.27;4.63;;;12.10;99.90;;;;;;5144348;28;20076;-61
2021/05/26 09:14:13;;;;;;;7.50;5.55;;;12.50;99.90;;;;;;5150535;28;20297;-62
2021/05/26 09:16:38;;;;;;;13.10;5.90;;;12.70;99.90;;;;;;5149435;28;20062;-60
2021/05/26 09:19:06;;;;;;;12.10;6.43;;;13.00;99.90;;;;;;5148990;28;20328;-59
2021/05/26 09:21:38;;;;;;;12.23;6.30;;;13.30;99.90;;;;;;5149396;28;20055;-62
2021/05/26 09:24:20;;;;;;;9.37;6.07;;;13.60;99.90;;;;;;5143652;28;20380;-62
2021/05/26 09:27:07;;;;;;;8.60;5.33;;;13.70;99.90;;;;;;5142467;28;20384;-61
2021/05/26 09:29:35;;;;;;;10.60;4.30;;;13.90;99.90;;;;;;5144012;28;20296;-60
2021/05/26 09:32:13;;;;;;;5.77;3.30;;;14.10;99.90;;;;;;5130018;28;20288;-62
2021/05/26 09:34:43;;;;;;;4.37;3.17;;;14.00;97.80;;;;;;5153490;27;20293;-61
2021/05/26 09:37:16;;;;;;;6.90;2.67;;;14.10;97.50;;;;;;5154076;27;20352;-62
2021/05/26 09:39:48;;;;;;;5.67;2.60;;;13.90;96.10;;;;;;5153579;27;20285;-61
2021/05/26 09:42:43;;;;;;;3.50;2.50;;;13.70;94.50;;;;;;5145929;28;20304;-61
2021/05/26 09:45:17;;;;;;;3.87;3.00;;;13.60;95.20;;;;;;5137787;28;20407;-60
2021/05/26 09:47:50;;;;;;;5.75;3.10;;;13.30;96.20;;;;;;5141691;28;20320;-59
2021/05/26 09:50:34;;;;;;;4.40;3.45;;;13.20;97.20;;;;;;5147440;28;20047;-59
2021/05/26 09:53:03;;;;;;;4.60;3.42;;;13.50;99.00;;;;;;5146943;28;20051;-59
2021/05/26 09:55:39;;;;;;;6.27;3.60;;;13.80;99.90;;;;;;5146475;28;20055;-60
2021/05/26 09:58:08;;;;;;;8.20;4.10;;;14.00;98.10;;;;;;5145979;28;20297;-60
2021/05/26 10:00:35;;;;;;;7.70;3.57;;;14.30;99.30;;;;;;5127309;28;20817;-59
2021/05/26 10:03:01;;;;;;;5.13;3.53;;;14.90;98.60;;;;;;5148353;27;20290;-59
2021/05/26 10:05:27;;;;;;;8.03;3.80;;;15.20;96.00;;;;;;5138380;27;20643;-60
2021/05/26 10:07:59;;;;;;;10.83;4.17;;;15.20;92.60;;;;;;5131162;27;20042;-60
2021/05/26 10:10:28;;;;;;;7.00;3.33;;;15.00;92.80;;;;;;5149848;27;20035;-59
2021/05/26 10:13:03;;;;;;;7.10;3.37;;;14.90;90.60;;;;;;5150043;27;20352;-60
2021/05/26 10:15:31;;;;;;;8.90;3.93;;;14.60;90.30;;;;;;5148757;27;20289;-59
2021/05/26 10:17:58;;;;;;;3.23;1.93;;;14.40;93.30;;;;;;5149166;27;20292;-59
2021/05/26 10:20:26;;;;;;;4.33;1.60;;;14.10;94.30;;;;;;5150871;27;20301;-59
2021/05/26 10:22:54;;;;;;;3.63;1.60;;;13.70;94.80;;;;;;5150654;27;20375;-59
2021/05/26 10:25:21;;;;;;;2.77;1.30;;;13.70;97.80;;;;;;5149326;27;20292;-59
2021/05/26 10:27:52;;;;;;;2.40;1.40;;;13.50;97.30;;;;;;5149364;27;20372;-59
2021/05/26 10:30:21;;;;;;;2.17;1.40;;;13.70;93.00;;;;;;5144423;27;20297;-60
2021/05/26 10:33:06;;;;;;;1.83;1.20;;;13.80;94.90;;;;;;5138528;27;20285;-60
2021/05/26 10:35:53;;;;;;;2.30;1.20;;;14.00;86.20;;;;;;5119806;27;20392;-59
2021/05/26 10:38:19;;;;;;;2.27;1.10;;;14.20;82.10;;;;;;5141257;27;20349;-60
2021/05/26 10:40:53;;;;;;;5.50;1.20;;;14.60;86.00;;;;;;5140476;27;20341;-59
2021/05/26 10:43:19;;;;;;;1.92;0.82;;;14.90;78.40;;;;;;5138522;27;20043;-60
2021/05/26 10:45:47;;;;;;;1.97;0.60;;;14.70;77.20;;;;;;5137315;27;20039;-60
2021/05/26 10:48:13;;;;;;;0.70;0.53;;;14.70;71.40;;;;;;5134241;27;20633;-59
2021/05/26 10:50:45;;;;;;;2.57;0.80;;;14.70;73.10;;;;;;5134194;27;20301;-60
2021/05/26 10:53:14;;;;;;;1.87;0.80;;;14.60;74.60;;;;;;5133152;27;20376;-59
2021/05/26 10:55:43;;;;;;;1.33;0.87;;;14.50;73.40;;;;;;5133146;27;20300;-61
2021/05/26 10:58:35;;;;;;;1.47;0.80;;;14.50;76.40;;;;;;5133361;27;20333;-60
2021/05/26 11:01:00;;;;;;;1.77;0.90;;;14.80;76.70;;;;;;5132280;27;20304;-60
2021/05/26 11:03:28;;;;;;;2.00;0.90;;;15.00;75.20;;;;;;5134170;27;20305;-59
2021/05/26 11:06:05;;;;;;;1.50;1.00;;;14.90;75.60;;;;;;5133485;27;20046;-60
2021/05/26 11:08:47;;;;;;;1.33;0.90;;;15.00;74.50;;;;;;5133542;27;20331;-60
2021/05/26 11:11:21;;;;;;;7.63;1.30;;;15.00;73.90;;;;;;5135206;27;20300;-60
2021/05/26 11:14:22;;;;;;;1.57;0.93;;;14.80;70.30;;;;;;5142180;27;20300;-59
2021/05/26 11:16:47;;;;;;;2.63;1.00;;;14.80;74.50;;;;;;5151477;27;20055;-59
2021/05/26 11:19:20;;;;;;;2.63;1.00;;;15.00;75.90;;;;;;5138507;27;20297;-60
2021/05/26 11:21:55;;;;;;;1.70;1.30;;;15.10;74.00;;;;;;5131693;27;20400;-59
2021/05/26 11:24:22;;;;;;;2.03;0.70;;;14.90;73.60;;;;;;5133677;27;20094;-59
2021/05/26 11:26:48;;;;;;;1.17;0.70;;;14.80;74.60;;;;;;5130883;27;20430;-59
2021/05/26 11:29:29;;;;;;;2.80;0.60;;;14.50;72.30;;;;;;5132367;27;20644;-59
2021/05/26 11:32:16;;;;;;;0.63;0.60;;;14.40;71.20;;;;;;5135230;27;20678;-62
2021/05/26 11:34:45;;;;;;;0.90;0.77;;;14.40;70.60;;;;;;5136845;27;20292;-58
2021/05/26 11:39:40;;;;;;;2.17;0.80;;;14.60;74.60;;;;;;5055213;22;20316;-59
2021/05/26 11:42:21;;;;;;;1.27;0.80;;;14.80;75.00;;;;;;5036498;28;20446;-59
2021/05/26 11:45:01;;;;;;;2.00;0.90;;;15.00;71.10;;;;;;5036303;28;20049;-63
2021/05/26 11:47:37;;;;;;;1.57;0.80;;;14.90;68.00;;;;;;5050700;28;20291;-60
2021/05/26 11:50:27;;;;;;;2.27;0.70;;;14.80;70.10;;;;;;5050065;28;20349;-66
2021/05/26 11:53:00;;;;;;;0.70;0.70;;;14.70;68.20;;;;;;5048950;28;20395;-62
2021/05/26 11:55:26;;;;;;;3.07;0.80;;;14.70;67.40;;;;;;5049278;28;20299;-59
2021/05/26 11:57:53;;;;;;;2.83;0.90;;;14.60;67.40;;;;;;5049422;28;20303;-58
2021/05/26 12:00:27;;;;;;;0.93;0.70;;;14.60;66.30;;;;;;5051511;28;20310;-60
2021/05/26 12:02:58;;;;;;;3.05;0.75;;;14.90;68.00;;;;;;5050849;28;20310;-60
2021/05/26 12:05:46;;;;;;;0.80;0.70;;;15.20;67.10;;;;;;5053229;28;20155;-59
2021/05/26 12:08:19;;;;;;;2.50;0.87;;;15.20;63.50;;;;;;5054739;28;20309;-60
2021/05/26 12:10:52;;;;;;;0.85;0.75;;;15.20;66.10;;;;;;5055126;28;20291;-61
2021/05/26 12:13:26;;;;;;;1.67;0.70;;;14.90;65.30;;;;;;5049814;28;20065;-60
2021/05/26 12:16:01;;;;;;;3.83;0.80;;;15.00;66.10;;;;;;5051343;28;20828;-60
2021/05/26 12:18:27;;;;;;;1.23;0.70;;;15.00;68.50;;;;;;5048766;28;20360;-60
2021/05/26 12:20:54;;;;;;;3.47;0.77;;;15.20;66.40;;;;;;5047667;28;20337;-60
2021/05/26 12:23:37;;;;;;;2.17;1.20;;;15.40;66.40;;;;;;5050038;28;20303;-59
2021/05/26 12:26:27;;;;;;;2.27;1.00;;;15.40;63.60;;;;;;5049331;28;20295;-60
2021/05/26 12:28:57;;;;;;;4.40;0.80;;;15.30;64.30;;;;;;5052553;28;20329;-61
2021/05/26 12:31:26;;;;;;;4.33;0.90;;;15.30;66.70;;;;;;5034465;28;20357;-61
2021/05/26 12:33:53;;;;;;;1.20;0.77;;;15.60;68.10;;;;;;5034312;28;20132;-59
2021/05/26 12:36:24;;;;;;;9.50;0.90;;;15.90;66.20;;;;;;5019885;28;20481;-61
2021/05/26 12:38:58;;;;;;;2.20;0.80;;;15.90;63.30;;;;;;5033602;28;20532;-60
2021/05/26 12:41:32;;;;;;;1.40;0.90;;;15.70;64.20;;;;;;5031028;28;20093;-59
2021/05/26 12:44:00;;;;;;;2.95;1.10;;;15.50;63.10;;;;;;5044778;28;20064;-60
2021/05/26 12:46:40;;;;;;;2.30;1.03;;;15.50;64.60;;;;;;5055574;28;20078;-61
2021/05/26 12:49:27;;;;;;;3.10;1.00;;;15.90;63.50;;;;;;5057864;28;20044;-61
2021/05/26 12:51:54;;;;;;;2.73;1.30;;;16.10;64.80;;;;;;5057428;28;20045;-61
2021/05/26 12:54:20;;;;;;;3.23;1.03;;;16.20;63.20;;;;;;5060240;28;20056;-60